sensor_id;sensor_type;location;lat;lon;timestamp;temperature;humidity
15922;DHT22;8060;50.948;3.146;2023-07-22T05:31:46;15.70;99.90
15922;DHT22;8060;50.948;3.146;2023-07-22T05:36:17;15.60;99.90
15922;DHT22;8060;50.948;3.146;2023-07-22T05:47:30;15.80;99.90
15922;DHT22;8060;50.948;3.146;2023-07-22T05:49:58;15.90;99.90
15922;DHT22;8060;50.948;3.146;2023-07-22T05:52:26;16.00;99.90
15922;DHT22;8060;50.948;3.146;2023-07-22T05:54:54;16.10;99.90
15922;DHT22;8060;50.948;3.146;2023-07-22T05:57:22;16.20;99.90
15922;DHT22;8060;50.948;3.146;2023-07-22T05:59:50;16.20;99.90
15922;DHT22;8060;50.948;3.146;2023-07-22T06:02:35;16.40;99.90
15922;DHT22;8060;50.948;3.146;2023-07-22T06:05:04;16.40;99.90
15922;DHT22;8060;50.948;3.146;2023-07-22T06:07:32;16.40;99.90
15922;DHT22;8060;50.948;3.146;2023-07-22T06:49:57;16.40;99.90
15922;DHT22;8060;50.948;3.146;2023-07-22T06:52:26;16.50;99.90
15922;DHT22;8060;50.948;3.146;2023-07-22T06:54:54;16.70;99.90
15922;DHT22;8060;50.948;3.146;2023-07-22T06:57:22;16.70;99.90
15922;DHT22;8060;50.948;3.146;2023-07-22T06:59:53;16.80;99.90
15922;DHT22;8060;50.948;3.146;2023-07-22T07:02:22;17.00;99.90
15922;DHT22;8060;50.948;3.146;2023-07-22T07:04:50;17.00;99.90
15922;DHT22;8060;50.948;3.146;2023-07-22T07:07:19;17.10;99.90
15922;DHT22;8060;50.948;3.146;2023-07-22T07:09:48;17.20;99.90
15922;DHT22;8060;50.948;3.146;2023-07-22T07:12:17;17.30;99.90
15922;DHT22;8060;50.948;3.146;2023-07-22T07:14:45;17.40;99.90
15922;DHT22;8060;50.948;3.146;2023-07-22T07:17:13;17.50;99.90
15922;DHT22;8060;50.948;3.146;2023-07-22T07:19:41;17.50;99.90
15922;DHT22;8060;50.948;3.146;2023-07-22T07:22:09;17.60;99.90
15922;DHT22;8060;50.948;3.146;2023-07-22T07:24:39;17.70;99.90
15922;DHT22;8060;50.948;3.146;2023-07-22T07:27:07;17.70;99.90
15922;DHT22;8060;50.948;3.146;2023-07-22T07:29:35;17.70;99.90
15922;DHT22;8060;50.948;3.146;2023-07-22T07:32:19;17.80;99.90
15922;DHT22;8060;50.948;3.146;2023-07-22T07:34:48;18.00;99.90
15922;DHT22;8060;50.948;3.146;2023-07-22T07:37:16;18.10;99.90
15922;DHT22;8060;50.948;3.146;2023-07-22T07:39:45;18.10;99.90
15922;DHT22;8060;50.948;3.146;2023-07-22T07:42:13;18.20;99.90
15922;DHT22;8060;50.948;3.146;2023-07-22T07:44:41;18.30;99.90
15922;DHT22;8060;50.948;3.146;2023-07-22T07:47:09;18.40;99.90
15922;DHT22;8060;50.948;3.146;2023-07-22T07:49:38;18.50;99.90
15922;DHT22;8060;50.948;3.146;2023-07-22T07:52:07;18.60;99.90
15922;DHT22;8060;50.948;3.146;2023-07-22T07:54:35;18.80;99.90
15922;DHT22;8060;50.948;3.146;2023-07-22T07:57:05;18.90;99.90
15922;DHT22;8060;50.948;3.146;2023-07-22T07:59:34;19.10;99.90
15922;DHT22;8060;50.948;3.146;2023-07-22T08:02:06;19.20;99.90
15922;DHT22;8060;50.948;3.146;2023-07-22T08:04:36;19.30;99.90
15922;DHT22;8060;50.948;3.146;2023-07-22T08:07:06;19.30;99.90
15922;DHT22;8060;50.948;3.146;2023-07-22T08:09:34;19.30;99.90
15922;DHT22;8060;50.948;3.146;2023-07-22T08:12:05;19.40;99.90
15922;DHT22;8060;50.948;3.146;2023-07-22T08:14:33;19.50;99.90
15922;DHT22;8060;50.948;3.146;2023-07-22T08:17:01;19.70;99.90
15922;DHT22;8060;50.948;3.146;2023-07-22T08:19:30;19.90;99.90
15922;DHT22;8060;50.948;3.146;2023-07-22T08:21:58;19.90;99.90
15922;DHT22;8060;50.948;3.146;2023-07-22T08:24:26;19.80;99.90
15922;DHT22;8060;50.948;3.146;2023-07-22T08:26:55;19.80;99.90
15922;DHT22;8060;50.948;3.146;2023-07-22T08:29:24;19.70;99.90
15922;DHT22;8060;50.948;3.146;2023-07-22T08:31:52;19.50;99.90
15922;DHT22;8060;50.948;3.146;2023-07-22T08:34:20;19.40;99.90
15922;DHT22;8060;50.948;3.146;2023-07-22T08:36:48;19.40;99.90
15922;DHT22;8060;50.948;3.146;2023-07-22T08:39:16;19.50;99.90
15922;DHT22;8060;50.948;3.146;2023-07-22T08:41:49;19.40;99.90
15922;DHT22;8060;50.948;3.146;2023-07-22T08:44:19;19.50;99.90
15922;DHT22;8060;50.948;3.146;2023-07-22T08:46:55;19.50;99.90
15922;DHT22;8060;50.948;3.146;2023-07-22T08:49:24;19.50;99.90
15922;DHT22;8060;50.948;3.146;2023-07-22T08:51:54;19.50;99.90
15922;DHT22;8060;50.948;3.146;2023-07-22T08:54:23;19.50;99.90
15922;DHT22;8060;50.948;3.146;2023-07-22T08:56:52;19.70;99.90
15922;DHT22;8060;50.948;3.146;2023-07-22T08:59:22;19.80;99.90
15922;DHT22;8060;50.948;3.146;2023-07-22T09:01:51;20.00;99.90
15922;DHT22;8060;50.948;3.146;2023-07-22T09:04:20;20.10;99.90
15922;DHT22;8060;50.948;3.146;2023-07-22T09:06:48;20.40;99.90
15922;DHT22;8060;50.948;3.146;2023-07-22T09:09:17;20.40;99.90
15922;DHT22;8060;50.948;3.146;2023-07-22T09:11:47;20.50;99.90
15922;DHT22;8060;50.948;3.146;2023-07-22T09:14:17;20.60;99.90
15922;DHT22;8060;50.948;3.146;2023-07-22T09:17:04;20.60;99.90
15922;DHT22;8060;50.948;3.146;2023-07-22T09:19:32;20.50;99.90
15922;DHT22;8060;50.948;3.146;2023-07-22T09:22:00;20.70;99.90
15922;DHT22;8060;50.948;3.146;2023-07-22T09:24:28;20.70;99.90
15922;DHT22;8060;50.948;3.146;2023-07-22T09:26:58;20.80;99.90
15922;DHT22;8060;50.948;3.146;2023-07-22T09:29:34;20.90;99.90
15922;DHT22;8060;50.948;3.146;2023-07-22T09:32:04;21.10;99.90
15922;DHT22;8060;50.948;3.146;2023-07-22T09:34:32;21.20;99.90
15922;DHT22;8060;50.948;3.146;2023-07-22T09:37:00;21.30;99.90
15922;DHT22;8060;50.948;3.146;2023-07-22T09:39:30;21.70;99.90
15922;DHT22;8060;50.948;3.146;2023-07-22T09:41:58;21.80;99.90
15922;DHT22;8060;50.948;3.146;2023-07-22T09:44:30;21.90;99.90
15922;DHT22;8060;50.948;3.146;2023-07-22T09:46:58;22.00;99.90
15922;DHT22;8060;50.948;3.146;2023-07-22T09:49:40;21.90;99.90
15922;DHT22;8060;50.948;3.146;2023-07-22T09:52:09;21.80;99.90
15922;DHT22;8060;50.948;3.146;2023-07-22T09:54:46;21.70;99.90
15922;DHT22;8060;50.948;3.146;2023-07-22T09:57:15;21.60;99.90
15922;DHT22;8060;50.948;3.146;2023-07-22T09:59:43;21.80;99.90
15922;DHT22;8060;50.948;3.146;2023-07-22T10:02:16;21.90;99.90
15922;DHT22;8060;50.948;3.146;2023-07-22T10:04:47;22.00;99.90
15922;DHT22;8060;50.948;3.146;2023-07-22T10:07:17;21.70;99.90
15922;DHT22;8060;50.948;3.146;2023-07-22T10:09:46;21.50;99.90
15922;DHT22;8060;50.948;3.146;2023-07-22T10:12:15;21.40;99.90
15922;DHT22;8060;50.948;3.146;2023-07-22T10:14:44;21.20;99.90
15922;DHT22;8060;50.948;3.146;2023-07-22T10:17:12;21.20;99.90
15922;DHT22;8060;50.948;3.146;2023-07-22T10:19:41;21.10;99.90
15922;DHT22;8060;50.948;3.146;2023-07-22T10:22:11;21.00;99.90
15922;DHT22;8060;50.948;3.146;2023-07-22T10:24:41;21.10;99.90
15922;DHT22;8060;50.948;3.146;2023-07-22T10:27:09;21.10;99.90
15922;DHT22;8060;50.948;3.146;2023-07-22T10:29:39;21.10;99.90
15922;DHT22;8060;50.948;3.146;2023-07-22T10:32:07;21.30;99.90
15922;DHT22;8060;50.948;3.146;2023-07-22T10:34:35;21.60;99.90
15922;DHT22;8060;50.948;3.146;2023-07-22T10:37:04;22.10;99.90
15922;DHT22;8060;50.948;3.146;2023-07-22T10:39:33;22.20;99.90
15922;DHT22;8060;50.948;3.146;2023-07-22T11:13:30;19.60;99.90
15922;DHT22;8060;50.948;3.146;2023-07-22T11:16:02;19.60;99.90
15922;DHT22;8060;50.948;3.146;2023-07-22T11:18:37;19.70;99.90
15922;DHT22;8060;50.948;3.146;2023-07-22T11:21:10;19.90;99.90
15922;DHT22;8060;50.948;3.146;2023-07-22T11:23:38;20.00;99.90
15922;DHT22;8060;50.948;3.146;2023-07-22T11:26:07;20.00;99.90
15922;DHT22;8060;50.948;3.146;2023-07-22T11:28:36;20.00;99.90
15922;DHT22;8060;50.948;3.146;2023-07-22T11:31:04;20.10;99.90
15922;DHT22;8060;50.948;3.146;2023-07-22T11:33:39;20.10;99.90
15922;DHT22;8060;50.948;3.146;2023-07-22T11:36:10;20.30;99.90
15922;DHT22;8060;50.948;3.146;2023-07-22T11:38:38;20.60;99.90
15922;DHT22;8060;50.948;3.146;2023-07-22T11:41:07;20.80;99.90
15922;DHT22;8060;50.948;3.146;2023-07-22T11:43:37;21.10;99.90
15922;DHT22;8060;50.948;3.146;2023-07-22T11:46:06;21.60;99.90
15922;DHT22;8060;50.948;3.146;2023-07-22T11:48:34;22.00;99.90
15922;DHT22;8060;50.948;3.146;2023-07-22T11:51:02;22.20;99.90
15922;DHT22;8060;50.948;3.146;2023-07-22T12:02:41;21.20;99.90
15922;DHT22;8060;50.948;3.146;2023-07-22T12:05:09;21.20;99.90
15922;DHT22;8060;50.948;3.146;2023-07-22T12:07:38;21.20;99.90
15922;DHT22;8060;50.948;3.146;2023-07-22T12:10:08;21.40;99.90
15922;DHT22;8060;50.948;3.146;2023-07-22T12:12:39;21.70;99.90
15922;DHT22;8060;50.948;3.146;2023-07-22T12:15:10;22.00;99.90
15922;DHT22;8060;50.948;3.146;2023-07-22T12:17:45;22.20;99.90
15922;DHT22;8060;50.948;3.146;2023-07-22T12:20:14;22.40;99.90
15922;DHT22;8060;50.948;3.146;2023-07-22T12:22:42;22.70;99.90
15922;DHT22;8060;50.948;3.146;2023-07-22T12:25:11;23.00;99.90
15922;DHT22;8060;50.948;3.146;2023-07-22T12:27:39;23.00;99.90
15922;DHT22;8060;50.948;3.146;2023-07-22T12:30:08;22.90;99.90
15922;DHT22;8060;50.948;3.146;2023-07-22T12:32:37;22.80;99.90
15922;DHT22;8060;50.948;3.146;2023-07-22T12:35:07;22.80;99.90
15922;DHT22;8060;50.948;3.146;2023-07-22T12:37:36;22.90;99.90
15922;DHT22;8060;50.948;3.146;2023-07-22T12:40:05;22.90;99.90
15922;DHT22;8060;50.948;3.146;2023-07-22T12:42:35;23.00;99.90
15922;DHT22;8060;50.948;3.146;2023-07-22T12:45:05;23.00;99.90
15922;DHT22;8060;50.948;3.146;2023-07-22T12:47:34;23.00;99.90
15922;DHT22;8060;50.948;3.146;2023-07-22T12:50:05;23.20;99.90
15922;DHT22;8060;50.948;3.146;2023-07-22T12:52:36;23.40;99.90
15922;DHT22;8060;50.948;3.146;2023-07-22T12:55:04;23.30;99.90
15922;DHT22;8060;50.948;3.146;2023-07-22T12:57:33;23.40;99.90
15922;DHT22;8060;50.948;3.146;2023-07-22T13:00:01;23.20;99.90
15922;DHT22;8060;50.948;3.146;2023-07-22T13:02:31;23.10;99.90
15922;DHT22;8060;50.948;3.146;2023-07-22T13:04:59;23.00;99.90
15922;DHT22;8060;50.948;3.146;2023-07-22T13:07:27;22.80;99.90
15922;DHT22;8060;50.948;3.146;2023-07-22T13:10:00;22.60;99.90
15922;DHT22;8060;50.948;3.146;2023-07-22T13:12:32;22.50;99.90
15922;DHT22;8060;50.948;3.146;2023-07-22T13:15:00;22.20;99.90
15922;DHT22;8060;50.948;3.146;2023-07-22T13:17:28;22.20;99.90
15922;DHT22;8060;50.948;3.146;2023-07-22T13:19:56;22.10;99.90
15922;DHT22;8060;50.948;3.146;2023-07-22T13:22:25;21.70;99.90
15922;DHT22;8060;50.948;3.146;2023-07-22T13:24:53;21.80;99.90
15922;DHT22;8060;50.948;3.146;2023-07-22T13:27:22;21.70;99.90
15922;DHT22;8060;50.948;3.146;2023-07-22T13:29:50;21.80;99.90
15922;DHT22;8060;50.948;3.146;2023-07-22T13:32:19;22.00;99.90
15922;DHT22;8060;50.948;3.146;2023-07-22T13:34:47;22.10;99.90
15922;DHT22;8060;50.948;3.146;2023-07-22T13:37:15;22.30;99.90
15922;DHT22;8060;50.948;3.146;2023-07-22T13:39:43;22.40;99.90
15922;DHT22;8060;50.948;3.146;2023-07-22T13:42:12;22.40;99.90
15922;DHT22;8060;50.948;3.146;2023-07-22T13:44:41;22.50;99.90
15922;DHT22;8060;50.948;3.146;2023-07-22T13:47:09;22.60;99.90
15922;DHT22;8060;50.948;3.146;2023-07-22T13:49:37;22.70;99.90
15922;DHT22;8060;50.948;3.146;2023-07-22T13:52:05;22.70;99.90
15922;DHT22;8060;50.948;3.146;2023-07-22T13:54:33;22.90;99.90
15922;DHT22;8060;50.948;3.146;2023-07-22T13:57:02;22.80;99.90
15922;DHT22;8060;50.948;3.146;2023-07-22T13:59:30;22.90;99.90
15922;DHT22;8060;50.948;3.146;2023-07-22T14:02:00;22.80;99.90
15922;DHT22;8060;50.948;3.146;2023-07-22T18:48:22;19.40;99.90
15922;DHT22;8060;50.948;3.146;2023-07-22T18:50:54;19.30;99.90
